Flight Track Log - Related Links

Times and Time Zones

All times are in EDT time to prevent confusion due to time zone crossing. See the EJA721P flight status page for this flight to view local times or setup timezone preferences in your user account.

Time Position Orientation Groundspeed Altitude Reporting Facility
EDT Latitude Longitude Course Direction KTS MPH feet Rate Location/Type
Sat 01:11:57 AM 35.7286 -84.0439 130° Southeast 262 302 5,000  Level Atlanta Center
Sat 01:12:57 AM 35.6764 -83.9672 130° Southeast 233 268 8,300 3,200 Climbing Atlanta Center
Sat 01:13:57 AM 35.6264 -83.8803 125° Southeast 257 296 11,400 3,150 Climbing Atlanta Center
Sat 01:14:57 AM 35.5678 -83.7833 127° Southeast 305 351 14,600 3,250 Climbing Atlanta Center
Sat 01:15:57 AM 35.5069 -83.6817 126° Southeast 351 404 17,900 3,050 Climbing Atlanta Center
Sat 01:16:57 AM 35.4419 -83.5775 127° Southeast 374 430 20,700 2,650 Climbing Atlanta Center
Sat 01:17:57 AM 35.3747 -83.4656 126° Southeast 393 452 23,200 2,500 Climbing Atlanta Center
Sat 01:18:57 AM 35.3053 -83.3517 127° Southeast 408 470 25,700 2,650 Climbing Atlanta Center
Sat 01:19:57 AM 35.2272 -83.2225 126° Southeast 424 488 28,500 1,650 Climbing Atlanta Center
Sat 01:20:57 AM 35.1536 -83.1064 128° Southeast 429 494 29,000 250 Climbing Atlanta Center
Sat 01:21:57 AM 35.0753 -82.9753 126° Southeast 451 519 29,000  Level Atlanta Center
Sat 01:22:57 AM 34.9969 -82.8497 127° Southeast 463 533 29,000  Level Atlanta Center
Sat 01:23:57 AM 34.9183 -82.7267 128° Southeast 463 533 29,000  Level Atlanta Center
Sat 01:24:57 AM 34.8419 -82.6014 127° Southeast 463 533 29,000  Level Atlanta Center
Sat 01:25:57 AM 34.7653 -82.4761 127° Southeast 458 527 29,000  Level Atlanta Center
Sat 01:27:51 AM 34.6297 -82.2592 127° Southeast 459 528 29,000  Level Jacksonville Center
Sat 01:28:51 AM 34.5519 -82.1364 128° Southeast 459 528 29,000  Level Jacksonville Center
Sat 01:29:51 AM 34.4781 -82.0161 127° Southeast 459 528 29,000  Level Jacksonville Center
Sat 01:30:51 AM 34.4000 -81.8961 128° Southeast 459 528 29,000  Level Jacksonville Center
Sat 01:31:51 AM 34.3217 -81.7764 128° Southeast 459 528 29,000 -650 Level Jacksonville Center
Sat 01:32:51 AM 34.2475 -81.6542 126° Southeast 459 528 27,700 -1,650 Descending Jacksonville Center
Sat 01:33:51 AM 34.1756 -81.5472 129° Southeast 439 505 25,700 -1,850 Descending Jacksonville Center
Sat 01:34:51 AM 34.1097 -81.4428 127° Southeast 415 478 24,000 -1,300 Descending Jacksonville Center
Sat 01:35:51 AM 34.0439 -81.3411 128° Southeast 396 456 23,100 -1,500 Descending Jacksonville Center
Sat 01:36:51 AM 33.9800 -81.2447 129° Southeast 382 440 21,000 -2,050 Descending Jacksonville Center
Sat 01:37:51 AM 33.9203 -81.1481 127° Southeast 369 425 19,000 -2,100 Descending Jacksonville Center
Sat 01:38:51 AM 33.8606 -81.0569 128° Southeast 364 419 16,800 -2,150 Descending Jacksonville Center
Sat 01:39:51 AM 33.7928 -80.9858 139° Southeast 338 389 14,700 -2,050 Descending Jacksonville Center
Sat 01:40:51 AM 33.7250 -80.9147 139° Southeast 322 371 12,700 -1,850 Descending Jacksonville Center
Sat 01:41:51 AM 33.6592 -80.8414 137° Southeast 322 371 11,000 -850 Descending Jacksonville Center
Sat 01:42:51 AM 33.5933 -80.7731 139° Southeast 315 362 11,000  Level Jacksonville Center
Sat 01:43:51 AM 33.5231 -80.6950 137° Southeast 326 375 11,000  Level Jacksonville Center
Sat 01:44:51 AM 33.4508 -80.6197 139° Southeast 338 389 11,000  Level Jacksonville Center
Sat 01:45:51 AM 33.3847 -80.5519 139° Southeast 333 383 11,000  Level Jacksonville Center
Sat 01:46:51 AM 33.3231 -80.4864 138° Southeast 313 360 11,000 -300 Level Jacksonville Center
Sat 01:47:51 AM 33.2858 -80.3953 116° Southeast 301 346 10,400 -1,450 Descending Jacksonville Center
Sat 01:48:51 AM 33.2444 -80.3097 120° Southeast 301 346 8,100 -2,150 Descending Jacksonville Center
Sat 01:49:51 AM 33.2094 -80.2286 117° Southeast 288 331 6,100 -1,850 Descending Jacksonville Center
Sat 01:50:51 AM 33.1722 -80.1503 120° Southeast 277 319 4,400 -1,550 Descending Jacksonville Center
Sat 01:51:51 AM 33.1392 -80.0744 117° Southeast 270 311 3,000 -750 Descending Jacksonville Center
Sat 01:52:51 AM 33.1083 -80.0011 117° Southeast 258 297 2,900 -50 Descending Jacksonville Center
Sat 01:53:51 AM 33.0739 -79.9503 129° Southeast 229 264 2,900  Level Jacksonville Center
Sat 01:55:00 AM 32.9671 -79.9968 200° South  Level FlightAware Approximate
Sat 02:02:00 AM 32.8986 -80.0405 187° South  Level Estimated
Sat 02:03:00 AM 32.8986 -80.0405 187° South  Level Estimated
Sat 02:04:00 AM 32.8986 -80.0405 187° South  Level Estimated
Sat 02:05:00 AM 32.8986 -80.0405 187° South  Level Estimated
Sat 02:06:00 AM 32.8986 -80.0405 187° South  Level Estimated
Sat 02:07:00 AM 32.8986 -80.0405 187° South  Level Estimated

Login

Don't have an account? Register now (free) for customized features, flight alerts, and more!